sensor_id;sensor_type;location;lat;lon;timestamp;P1;durP1;ratioP1;P2;durP2;ratioP2
78989;SDS011;68390;52.130;21.218;2023-07-24T00:00:18;10.52;;;5.97;;
78989;SDS011;68390;52.130;21.218;2023-07-24T00:02:46;7.43;;;4.80;;
78989;SDS011;68390;52.130;21.218;2023-07-24T00:05:12;7.28;;;5.13;;
78989;SDS011;68390;52.130;21.218;2023-07-24T00:07:37;8.38;;;5.40;;
78989;SDS011;68390;52.130;21.218;2023-07-24T00:10:03;7.30;;;4.65;;
78989;SDS011;68390;52.130;21.218;2023-07-24T00:12:28;10.05;;;6.40;;
78989;SDS011;68390;52.130;21.218;2023-07-24T00:14:54;8.70;;;5.80;;
78989;SDS011;68390;52.130;21.218;2023-07-24T00:17:19;10.77;;;5.97;;
78989;SDS011;68390;52.130;21.218;2023-07-24T00:19:45;8.98;;;5.78;;
78989;SDS011;68390;52.130;21.218;2023-07-24T00:22:10;7.30;;;4.38;;
78989;SDS011;68390;52.130;21.218;2023-07-24T00:24:35;8.77;;;5.70;;
78989;SDS011;68390;52.130;21.218;2023-07-24T00:27:01;7.70;;;5.10;;
78989;SDS011;68390;52.130;21.218;2023-07-24T00:29:26;7.38;;;4.82;;
78989;SDS011;68390;52.130;21.218;2023-07-24T00:31:52;9.52;;;5.88;;
78989;SDS011;68390;52.130;21.218;2023-07-24T00:34:17;8.40;;;5.40;;
78989;SDS011;68390;52.130;21.218;2023-07-24T00:36:42;8.40;;;5.10;;
78989;SDS011;68390;52.130;21.218;2023-07-24T00:39:08;10.13;;;6.03;;
78989;SDS011;68390;52.130;21.218;2023-07-24T00:41:33;8.10;;;5.05;;
78989;SDS011;68390;52.130;21.218;2023-07-24T00:43:59;8.65;;;5.45;;
78989;SDS011;68390;52.130;21.218;2023-07-24T00:46:24;8.60;;;5.53;;
78989;SDS011;68390;52.130;21.218;2023-07-24T00:48:50;7.85;;;5.00;;
78989;SDS011;68390;52.130;21.218;2023-07-24T00:51:16;8.90;;;5.70;;
78989;SDS011;68390;52.130;21.218;2023-07-24T00:53:42;8.73;;;5.88;;
78989;SDS011;68390;52.130;21.218;2023-07-24T00:56:07;8.20;;;5.57;;
78989;SDS011;68390;52.130;21.218;2023-07-24T00:58:35;10.80;;;5.90;;
78989;SDS011;68390;52.130;21.218;2023-07-24T01:01:02;7.78;;;5.93;;
78989;SDS011;68390;52.130;21.218;2023-07-24T01:03:31;9.93;;;5.95;;
78989;SDS011;68390;52.130;21.218;2023-07-24T01:05:59;10.77;;;5.97;;
78989;SDS011;68390;52.130;21.218;2023-07-24T01:08:26;8.20;;;5.63;;
78989;SDS011;68390;52.130;21.218;2023-07-24T01:10:52;10.05;;;6.18;;
78989;SDS011;68390;52.130;21.218;2023-07-24T01:13:19;11.55;;;6.13;;
78989;SDS011;68390;52.130;21.218;2023-07-24T01:15:56;9.55;;;5.18;;
78989;SDS011;68390;52.130;21.218;2023-07-24T01:18:28;7.82;;;5.43;;
78989;SDS011;68390;52.130;21.218;2023-07-24T01:20:56;7.28;;;4.90;;
78989;SDS011;68390;52.130;21.218;2023-07-24T01:26:07;8.55;;;5.05;;
78989;SDS011;68390;52.130;21.218;2023-07-24T01:28:33;9.32;;;4.88;;
78989;SDS011;68390;52.130;21.218;2023-07-24T01:30:58;9.38;;;5.45;;
78989;SDS011;68390;52.130;21.218;2023-07-24T01:33:24;8.85;;;4.55;;
78989;SDS011;68390;52.130;21.218;2023-07-24T01:35:50;8.77;;;4.60;;
78989;SDS011;68390;52.130;21.218;2023-07-24T01:38:19;9.30;;;5.30;;
78989;SDS011;68390;52.130;21.218;2023-07-24T01:40:48;7.95;;;5.10;;
78989;SDS011;68390;52.130;21.218;2023-07-24T01:43:16;7.00;;;5.07;;
78989;SDS011;68390;52.130;21.218;2023-07-24T01:45:41;7.32;;;5.20;;
78989;SDS011;68390;52.130;21.218;2023-07-24T01:48:06;7.85;;;5.32;;
78989;SDS011;68390;52.130;21.218;2023-07-24T01:50:32;8.70;;;4.88;;
78989;SDS011;68390;52.130;21.218;2023-07-24T01:52:57;7.07;;;4.80;;
78989;SDS011;68390;52.130;21.218;2023-07-24T01:55:23;9.15;;;4.78;;
78989;SDS011;68390;52.130;21.218;2023-07-24T01:57:49;6.85;;;4.70;;
78989;SDS011;68390;52.130;21.218;2023-07-24T02:00:14;5.93;;;4.40;;
78989;SDS011;68390;52.130;21.218;2023-07-24T02:02:39;8.45;;;4.82;;
78989;SDS011;68390;52.130;21.218;2023-07-24T02:05:05;8.43;;;4.95;;
78989;SDS011;68390;52.130;21.218;2023-07-24T02:07:30;7.30;;;4.82;;
78989;SDS011;68390;52.130;21.218;2023-07-24T02:09:56;6.75;;;4.47;;
78989;SDS011;68390;52.130;21.218;2023-07-24T02:12:21;6.93;;;4.93;;
78989;SDS011;68390;52.130;21.218;2023-07-24T02:14:47;7.90;;;4.95;;
78989;SDS011;68390;52.130;21.218;2023-07-24T02:17:18;7.05;;;4.63;;
78989;SDS011;68390;52.130;21.218;2023-07-24T02:19:44;6.65;;;4.10;;
78989;SDS011;68390;52.130;21.218;2023-07-24T02:22:09;8.13;;;4.47;;
78989;SDS011;68390;52.130;21.218;2023-07-24T02:24:35;6.57;;;4.53;;
78989;SDS011;68390;52.130;21.218;2023-07-24T02:27:00;7.30;;;4.78;;
78989;SDS011;68390;52.130;21.218;2023-07-24T02:29:26;9.02;;;4.45;;
78989;SDS011;68390;52.130;21.218;2023-07-24T02:31:52;6.65;;;4.00;;
78989;SDS011;68390;52.130;21.218;2023-07-24T02:34:19;7.15;;;3.90;;
78989;SDS011;68390;52.130;21.218;2023-07-24T02:36:44;6.70;;;3.88;;
78989;SDS011;68390;52.130;21.218;2023-07-24T02:39:09;7.72;;;4.43;;
78989;SDS011;68390;52.130;21.218;2023-07-24T02:41:35;6.00;;;4.05;;
78989;SDS011;68390;52.130;21.218;2023-07-24T02:44:01;7.32;;;4.40;;
78989;SDS011;68390;52.130;21.218;2023-07-24T02:46:27;6.80;;;4.13;;
78989;SDS011;68390;52.130;21.218;2023-07-24T02:48:54;7.80;;;4.88;;
78989;SDS011;68390;52.130;21.218;2023-07-24T02:51:19;7.53;;;4.28;;
78989;SDS011;68390;52.130;21.218;2023-07-24T02:53:45;9.43;;;5.00;;
78989;SDS011;68390;52.130;21.218;2023-07-24T02:56:10;9.40;;;4.60;;
78989;SDS011;68390;52.130;21.218;2023-07-24T02:58:35;8.40;;;4.73;;
78989;SDS011;68390;52.130;21.218;2023-07-24T03:01:04;7.23;;;4.40;;
78989;SDS011;68390;52.130;21.218;2023-07-24T03:03:31;5.95;;;4.15;;
78989;SDS011;68390;52.130;21.218;2023-07-24T03:05:57;6.13;;;4.10;;
78989;SDS011;68390;52.130;21.218;2023-07-24T03:08:23;6.45;;;4.45;;
78989;SDS011;68390;52.130;21.218;2023-07-24T03:10:48;6.57;;;4.35;;
78989;SDS011;68390;52.130;21.218;2023-07-24T03:13:14;9.57;;;4.95;;
78989;SDS011;68390;52.130;21.218;2023-07-24T03:15:39;7.07;;;4.53;;
78989;SDS011;68390;52.130;21.218;2023-07-24T03:18:04;9.50;;;5.15;;
78989;SDS011;68390;52.130;21.218;2023-07-24T03:20:30;7.60;;;4.37;;
78989;SDS011;68390;52.130;21.218;2023-07-24T03:22:55;10.17;;;4.47;;
78989;SDS011;68390;52.130;21.218;2023-07-24T03:25:20;9.13;;;4.63;;
78989;SDS011;68390;52.130;21.218;2023-07-24T03:27:46;11.90;;;4.68;;
78989;SDS011;68390;52.130;21.218;2023-07-24T03:30:11;7.50;;;4.57;;
78989;SDS011;68390;52.130;21.218;2023-07-24T03:32:37;8.55;;;4.50;;
78989;SDS011;68390;52.130;21.218;2023-07-24T03:35:03;8.00;;;4.03;;
78989;SDS011;68390;52.130;21.218;2023-07-24T03:37:30;9.80;;;4.43;;
78989;SDS011;68390;52.130;21.218;2023-07-24T03:39:56;7.35;;;4.45;;
78989;SDS011;68390;52.130;21.218;2023-07-24T03:42:28;16.15;;;4.70;;
78989;SDS011;68390;52.130;21.218;2023-07-24T03:47:22;8.05;;;4.30;;
78989;SDS011;68390;52.130;21.218;2023-07-24T03:49:48;9.13;;;4.32;;
78989;SDS011;68390;52.130;21.218;2023-07-24T03:52:13;12.05;;;4.53;;
78989;SDS011;68390;52.130;21.218;2023-07-24T03:54:39;7.53;;;4.30;;
78989;SDS011;68390;52.130;21.218;2023-07-24T03:57:04;7.13;;;4.20;;
78989;SDS011;68390;52.130;21.218;2023-07-24T03:59:30;8.98;;;4.22;;
78989;SDS011;68390;52.130;21.218;2023-07-24T04:01:56;7.35;;;4.43;;
78989;SDS011;68390;52.130;21.218;2023-07-24T04:04:21;8.35;;;4.18;;
78989;SDS011;68390;52.130;21.218;2023-07-24T04:06:47;6.57;;;4.13;;
78989;SDS011;68390;52.130;21.218;2023-07-24T04:09:12;7.03;;;3.90;;
78989;SDS011;68390;52.130;21.218;2023-07-24T04:11:40;7.55;;;4.38;;
78989;SDS011;68390;52.130;21.218;2023-07-24T04:14:05;6.60;;;4.13;;
78989;SDS011;68390;52.130;21.218;2023-07-24T04:16:31;7.22;;;3.75;;
78989;SDS011;68390;52.130;21.218;2023-07-24T04:18:56;8.88;;;3.95;;
78989;SDS011;68390;52.130;21.218;2023-07-24T04:21:22;9.00;;;4.32;;
78989;SDS011;68390;52.130;21.218;2023-07-24T04:23:47;7.75;;;4.28;;
78989;SDS011;68390;52.130;21.218;2023-07-24T04:26:13;5.57;;;3.67;;
78989;SDS011;68390;52.130;21.218;2023-07-24T04:28:38;6.53;;;4.03;;
78989;SDS011;68390;52.130;21.218;2023-07-24T04:31:03;5.68;;;3.55;;
78989;SDS011;68390;52.130;21.218;2023-07-24T04:33:29;6.63;;;4.00;;
78989;SDS011;68390;52.130;21.218;2023-07-24T04:35:55;6.93;;;3.88;;
78989;SDS011;68390;52.130;21.218;2023-07-24T04:38:20;4.90;;;3.35;;
78989;SDS011;68390;52.130;21.218;2023-07-24T04:40:46;5.68;;;4.18;;
78989;SDS011;68390;52.130;21.218;2023-07-24T04:43:11;6.38;;;4.10;;
78989;SDS011;68390;52.130;21.218;2023-07-24T04:45:37;4.70;;;3.53;;
78989;SDS011;68390;52.130;21.218;2023-07-24T04:48:02;8.00;;;4.47;;
78989;SDS011;68390;52.130;21.218;2023-07-24T04:50:27;7.32;;;4.00;;
78989;SDS011;68390;52.130;21.218;2023-07-24T04:52:53;5.30;;;3.60;;
78989;SDS011;68390;52.130;21.218;2023-07-24T04:55:18;7.13;;;4.10;;
78989;SDS011;68390;52.130;21.218;2023-07-24T04:57:43;6.38;;;3.95;;
78989;SDS011;68390;52.130;21.218;2023-07-24T05:00:09;7.00;;;3.78;;
78989;SDS011;68390;52.130;21.218;2023-07-24T05:02:35;6.80;;;4.13;;
78989;SDS011;68390;52.130;21.218;2023-07-24T05:05:00;6.72;;;4.22;;
78989;SDS011;68390;52.130;21.218;2023-07-24T05:07:25;7.93;;;4.15;;
78989;SDS011;68390;52.130;21.218;2023-07-24T05:09:51;8.48;;;3.70;;
78989;SDS011;68390;52.130;21.218;2023-07-24T05:12:16;7.28;;;3.70;;
78989;SDS011;68390;52.130;21.218;2023-07-24T05:14:41;6.85;;;4.28;;
78989;SDS011;68390;52.130;21.218;2023-07-24T05:17:07;6.80;;;4.22;;
78989;SDS011;68390;52.130;21.218;2023-07-24T05:19:32;6.05;;;3.80;;
78989;SDS011;68390;52.130;21.218;2023-07-24T05:21:58;6.50;;;3.60;;
78989;SDS011;68390;52.130;21.218;2023-07-24T05:24:24;6.07;;;3.63;;
78989;SDS011;68390;52.130;21.218;2023-07-24T05:26:49;7.47;;;4.13;;
78989;SDS011;68390;52.130;21.218;2023-07-24T05:29:15;9.15;;;4.22;;
78989;SDS011;68390;52.130;21.218;2023-07-24T05:31:40;6.93;;;4.27;;
78989;SDS011;68390;52.130;21.218;2023-07-24T05:34:05;6.65;;;3.92;;
78989;SDS011;68390;52.130;21.218;2023-07-24T05:36:31;5.97;;;3.47;;
78989;SDS011;68390;52.130;21.218;2023-07-24T05:38:56;5.70;;;3.65;;
78989;SDS011;68390;52.130;21.218;2023-07-24T05:41:22;8.55;;;3.90;;
78989;SDS011;68390;52.130;21.218;2023-07-24T05:43:48;7.55;;;3.78;;
78989;SDS011;68390;52.130;21.218;2023-07-24T05:46:14;7.10;;;3.90;;
78989;SDS011;68390;52.130;21.218;2023-07-24T05:48:39;7.30;;;3.60;;
78989;SDS011;68390;52.130;21.218;2023-07-24T05:51:04;6.97;;;3.80;;
78989;SDS011;68390;52.130;21.218;2023-07-24T05:53:30;9.15;;;4.05;;
78989;SDS011;68390;52.130;21.218;2023-07-24T05:55:56;6.97;;;4.00;;
78989;SDS011;68390;52.130;21.218;2023-07-24T05:58:22;6.45;;;3.70;;
78989;SDS011;68390;52.130;21.218;2023-07-24T06:00:48;7.43;;;4.27;;
78989;SDS011;68390;52.130;21.218;2023-07-24T06:03:14;6.65;;;4.10;;
78989;SDS011;68390;52.130;21.218;2023-07-24T06:05:39;7.25;;;4.05;;
78989;SDS011;68390;52.130;21.218;2023-07-24T06:08:04;7.13;;;3.90;;
78989;SDS011;68390;52.130;21.218;2023-07-24T06:10:30;6.03;;;3.70;;
78989;SDS011;68390;52.130;21.218;2023-07-24T06:12:55;11.05;;;4.22;;
78989;SDS011;68390;52.130;21.218;2023-07-24T06:15:20;8.65;;;3.88;;
78989;SDS011;68390;52.130;21.218;2023-07-24T06:17:46;9.45;;;3.95;;
78989;SDS011;68390;52.130;21.218;2023-07-24T06:20:11;8.63;;;3.50;;
78989;SDS011;68390;52.130;21.218;2023-07-24T06:22:37;8.20;;;3.80;;
78989;SDS011;68390;52.130;21.218;2023-07-24T06:25:02;6.20;;;3.70;;
78989;SDS011;68390;52.130;21.218;2023-07-24T06:27:27;7.13;;;3.83;;
78989;SDS011;68390;52.130;21.218;2023-07-24T06:29:53;8.95;;;3.65;;
78989;SDS011;68390;52.130;21.218;2023-07-24T06:32:18;6.87;;;3.90;;
78989;SDS011;68390;52.130;21.218;2023-07-24T06:34:43;10.02;;;3.90;;
78989;SDS011;68390;52.130;21.218;2023-07-24T06:37:09;8.03;;;3.40;;
78989;SDS011;68390;52.130;21.218;2023-07-24T06:39:34;7.20;;;4.05;;
78989;SDS011;68390;52.130;21.218;2023-07-24T06:41:59;6.83;;;3.47;;
78989;SDS011;68390;52.130;21.218;2023-07-24T06:44:25;4.55;;;3.00;;
78989;SDS011;68390;52.130;21.218;2023-07-24T06:46:50;8.13;;;3.10;;
78989;SDS011;68390;52.130;21.218;2023-07-24T06:49:15;5.57;;;3.50;;
78989;SDS011;68390;52.130;21.218;2023-07-24T06:51:41;5.03;;;3.10;;
78989;SDS011;68390;52.130;21.218;2023-07-24T06:54:06;6.65;;;3.40;;
78989;SDS011;68390;52.130;21.218;2023-07-24T06:56:32;7.38;;;3.40;;
78989;SDS011;68390;52.130;21.218;2023-07-24T06:58:57;5.03;;;3.40;;
78989;SDS011;68390;52.130;21.218;2023-07-24T07:01:23;8.77;;;3.22;;
78989;SDS011;68390;52.130;21.218;2023-07-24T07:03:48;7.18;;;3.88;;
78989;SDS011;68390;52.130;21.218;2023-07-24T07:06:14;6.22;;;3.20;;
78989;SDS011;68390;52.130;21.218;2023-07-24T07:08:39;5.57;;;3.10;;
78989;SDS011;68390;52.130;21.218;2023-07-24T07:11:05;5.80;;;3.30;;
78989;SDS011;68390;52.130;21.218;2023-07-24T07:13:31;8.82;;;3.35;;
78989;SDS011;68390;52.130;21.218;2023-07-24T07:15:56;7.00;;;3.42;;
78989;SDS011;68390;52.130;21.218;2023-07-24T07:18:22;8.45;;;3.22;;
78989;SDS011;68390;52.130;21.218;2023-07-24T07:20:48;6.05;;;2.95;;
78989;SDS011;68390;52.130;21.218;2023-07-24T07:23:15;5.13;;;3.35;;
78989;SDS011;68390;52.130;21.218;2023-07-24T07:25:40;5.35;;;3.28;;
78989;SDS011;68390;52.130;21.218;2023-07-24T07:28:08;5.07;;;3.30;;
78989;SDS011;68390;52.130;21.218;2023-07-24T07:30:33;5.82;;;3.05;;
78989;SDS011;68390;52.130;21.218;2023-07-24T07:32:59;6.10;;;3.15;;
78989;SDS011;68390;52.130;21.218;2023-07-24T07:35:24;5.63;;;3.53;;
78989;SDS011;68390;52.130;21.218;2023-07-24T07:37:49;4.90;;;3.05;;
78989;SDS011;68390;52.130;21.218;2023-07-24T07:40:15;4.93;;;2.93;;
78989;SDS011;68390;52.130;21.218;2023-07-24T07:42:40;5.30;;;3.00;;
78989;SDS011;68390;52.130;21.218;2023-07-24T07:45:06;4.65;;;3.17;;
78989;SDS011;68390;52.130;21.218;2023-07-24T07:47:32;5.43;;;3.50;;
78989;SDS011;68390;52.130;21.218;2023-07-24T07:49:57;5.37;;;3.00;;
78989;SDS011;68390;52.130;21.218;2023-07-24T07:52:22;5.13;;;2.87;;
78989;SDS011;68390;52.130;21.218;2023-07-24T07:54:48;5.60;;;3.35;;
78989;SDS011;68390;52.130;21.218;2023-07-24T07:57:14;7.53;;;3.33;;
78989;SDS011;68390;52.130;21.218;2023-07-24T07:59:39;5.68;;;3.08;;
78989;SDS011;68390;52.130;21.218;2023-07-24T08:02:05;7.07;;;3.28;;
78989;SDS011;68390;52.130;21.218;2023-07-24T08:04:30;5.75;;;3.30;;
78989;SDS011;68390;52.130;21.218;2023-07-24T08:06:55;6.00;;;2.90;;
78989;SDS011;68390;52.130;21.218;2023-07-24T08:09:21;6.07;;;2.95;;
78989;SDS011;68390;52.130;21.218;2023-07-24T08:11:47;5.10;;;2.85;;
78989;SDS011;68390;52.130;21.218;2023-07-24T08:14:12;6.65;;;3.08;;
78989;SDS011;68390;52.130;21.218;2023-07-24T08:16:38;7.15;;;3.20;;
78989;SDS011;68390;52.130;21.218;2023-07-24T08:19:03;4.75;;;2.90;;
78989;SDS011;68390;52.130;21.218;2023-07-24T08:21:29;8.35;;;2.85;;
78989;SDS011;68390;52.130;21.218;2023-07-24T08:23:54;5.40;;;3.10;;
78989;SDS011;68390;52.130;21.218;2023-07-24T08:26:19;6.43;;;3.30;;
78989;SDS011;68390;52.130;21.218;2023-07-24T08:28:45;5.07;;;2.87;;
78989;SDS011;68390;52.130;21.218;2023-07-24T08:31:10;10.53;;;3.27;;
78989;SDS011;68390;52.130;21.218;2023-07-24T08:33:36;5.65;;;2.88;;
78989;SDS011;68390;52.130;21.218;2023-07-24T08:36:05;5.95;;;3.58;;
78989;SDS011;68390;52.130;21.218;2023-07-24T08:38:33;7.10;;;3.10;;
78989;SDS011;68390;52.130;21.218;2023-07-24T08:43:31;7.63;;;3.03;;
78989;SDS011;68390;52.130;21.218;2023-07-24T08:45:57;5.13;;;2.92;;
78989;SDS011;68390;52.130;21.218;2023-07-24T08:48:25;3.90;;;2.63;;
78989;SDS011;68390;52.130;21.218;2023-07-24T08:50:54;5.70;;;2.92;;
78989;SDS011;68390;52.130;21.218;2023-07-24T08:53:21;4.60;;;2.80;;
78989;SDS011;68390;52.130;21.218;2023-07-24T08:55:47;8.40;;;2.90;;
78989;SDS011;68390;52.130;21.218;2023-07-24T08:58:16;19.90;;;3.95;;
78989;SDS011;68390;52.130;21.218;2023-07-24T09:00:41;14.68;;;3.25;;
78989;SDS011;68390;52.130;21.218;2023-07-24T09:03:07;6.22;;;3.05;;
78989;SDS011;68390;52.130;21.218;2023-07-24T09:05:33;5.30;;;2.63;;
78989;SDS011;68390;52.130;21.218;2023-07-24T09:07:58;6.65;;;3.20;;
78989;SDS011;68390;52.130;21.218;2023-07-24T09:10:24;6.35;;;2.97;;
78989;SDS011;68390;52.130;21.218;2023-07-24T09:12:50;6.07;;;3.22;;
78989;SDS011;68390;52.130;21.218;2023-07-24T09:15:16;5.07;;;2.85;;
78989;SDS011;68390;52.130;21.218;2023-07-24T09:17:51;5.00;;;2.97;;
78989;SDS011;68390;52.130;21.218;2023-07-24T09:20:17;5.00;;;2.85;;
78989;SDS011;68390;52.130;21.218;2023-07-24T09:22:53;6.70;;;3.05;;
78989;SDS011;68390;52.130;21.218;2023-07-24T09:28:11;4.35;;;2.53;;
78989;SDS011;68390;52.130;21.218;2023-07-24T09:30:38;8.20;;;3.13;;
78989;SDS011;68390;52.130;21.218;2023-07-24T09:33:05;5.22;;;3.10;;
78989;SDS011;68390;52.130;21.218;2023-07-24T09:35:30;4.25;;;2.90;;
78989;SDS011;68390;52.130;21.218;2023-07-24T09:38:06;7.05;;;3.00;;
78989;SDS011;68390;52.130;21.218;2023-07-24T09:40:42;5.68;;;3.22;;
78989;SDS011;68390;52.130;21.218;2023-07-24T09:43:15;5.80;;;2.92;;
78989;SDS011;68390;52.130;21.218;2023-07-24T09:45:45;4.68;;;2.90;;
78989;SDS011;68390;52.130;21.218;2023-07-24T09:48:13;4.90;;;3.00;;
78989;SDS011;68390;52.130;21.218;2023-07-24T09:50:40;5.22;;;2.55;;
78989;SDS011;68390;52.130;21.218;2023-07-24T09:53:09;4.55;;;3.00;;
78989;SDS011;68390;52.130;21.218;2023-07-24T09:55:43;4.47;;;2.67;;
78989;SDS011;68390;52.130;21.218;2023-07-24T09:58:14;6.50;;;2.88;;
78989;SDS011;68390;52.130;21.218;2023-07-24T10:00:40;5.15;;;2.92;;
78989;SDS011;68390;52.130;21.218;2023-07-24T10:03:07;6.60;;;2.90;;
78989;SDS011;68390;52.130;21.218;2023-07-24T10:05:33;5.78;;;2.70;;
78989;SDS011;68390;52.130;21.218;2023-07-24T10:07:59;6.30;;;2.72;;
78989;SDS011;68390;52.130;21.218;2023-07-24T10:10:24;8.27;;;3.35;;
78989;SDS011;68390;52.130;21.218;2023-07-24T10:12:52;4.40;;;2.70;;
78989;SDS011;68390;52.130;21.218;2023-07-24T10:15:17;3.78;;;2.60;;
78989;SDS011;68390;52.130;21.218;2023-07-24T10:17:43;5.43;;;3.05;;
78989;SDS011;68390;52.130;21.218;2023-07-24T10:20:09;5.95;;;3.00;;
78989;SDS011;68390;52.130;21.218;2023-07-24T10:22:36;4.03;;;2.75;;
78989;SDS011;68390;52.130;21.218;2023-07-24T10:25:07;6.15;;;3.00;;
78989;SDS011;68390;52.130;21.218;2023-07-24T10:27:39;9.65;;;3.47;;
78989;SDS011;68390;52.130;21.218;2023-07-24T10:30:08;7.38;;;3.42;;
78989;SDS011;68390;52.130;21.218;2023-07-24T10:32:34;6.00;;;3.10;;
78989;SDS011;68390;52.130;21.218;2023-07-24T10:35:10;7.03;;;3.60;;
78989;SDS011;68390;52.130;21.218;2023-07-24T10:37:36;4.65;;;3.10;;
78989;SDS011;68390;52.130;21.218;2023-07-24T10:40:02;5.07;;;3.30;;
78989;SDS011;68390;52.130;21.218;2023-07-24T10:42:29;5.03;;;3.70;;
78989;SDS011;68390;52.130;21.218;2023-07-24T10:45:08;5.68;;;3.40;;
78989;SDS011;68390;52.130;21.218;2023-07-24T10:47:34;6.03;;;3.63;;
78989;SDS011;68390;52.130;21.218;2023-07-24T10:49:59;5.72;;;3.60;;
78989;SDS011;68390;52.130;21.218;2023-07-24T10:52:28;5.72;;;3.70;;
78989;SDS011;68390;52.130;21.218;2023-07-24T10:55:00;6.88;;;3.88;;
78989;SDS011;68390;52.130;21.218;2023-07-24T10:57:29;5.72;;;3.45;;
78989;SDS011;68390;52.130;21.218;2023-07-24T10:59:54;6.15;;;3.60;;
78989;SDS011;68390;52.130;21.218;2023-07-24T11:02:20;7.28;;;3.85;;
78989;SDS011;68390;52.130;21.218;2023-07-24T11:04:45;6.13;;;3.67;;
78989;SDS011;68390;52.130;21.218;2023-07-24T11:07:11;4.90;;;3.78;;
78989;SDS011;68390;52.130;21.218;2023-07-24T11:09:37;5.18;;;3.80;;
78989;SDS011;68390;52.130;21.218;2023-07-24T11:12:14;6.05;;;3.65;;
78989;SDS011;68390;52.130;21.218;2023-07-24T11:14:50;6.93;;;4.05;;
78989;SDS011;68390;52.130;21.218;2023-07-24T11:17:20;6.80;;;3.75;;
78989;SDS011;68390;52.130;21.218;2023-07-24T11:19:46;7.55;;;4.00;;
78989;SDS011;68390;52.130;21.218;2023-07-24T11:22:11;7.95;;;3.75;;
78989;SDS011;68390;52.130;21.218;2023-07-24T11:24:46;5.90;;;3.70;;
78989;SDS011;68390;52.130;21.218;2023-07-24T11:27:12;6.18;;;3.72;;
78989;SDS011;68390;52.130;21.218;2023-07-24T11:29:40;8.82;;;3.80;;
78989;SDS011;68390;52.130;21.218;2023-07-24T11:32:05;5.78;;;3.58;;
78989;SDS011;68390;52.130;21.218;2023-07-24T11:34:31;7.47;;;3.97;;
78989;SDS011;68390;52.130;21.218;2023-07-24T11:36:57;7.22;;;4.03;;
78989;SDS011;68390;52.130;21.218;2023-07-24T11:39:23;6.10;;;4.15;;
78989;SDS011;68390;52.130;21.218;2023-07-24T11:41:49;6.38;;;3.95;;
78989;SDS011;68390;52.130;21.218;2023-07-24T11:44:14;6.47;;;3.60;;
78989;SDS011;68390;52.130;21.218;2023-07-24T11:46:42;5.05;;;3.40;;
78989;SDS011;68390;52.130;21.218;2023-07-24T11:49:08;6.25;;;3.90;;
78989;SDS011;68390;52.130;21.218;2023-07-24T11:51:36;8.05;;;3.95;;
78989;SDS011;68390;52.130;21.218;2023-07-24T11:56:33;7.85;;;3.83;;
78989;SDS011;68390;52.130;21.218;2023-07-24T11:59:08;7.53;;;3.95;;
78989;SDS011;68390;52.130;21.218;2023-07-24T12:01:38;6.65;;;3.78;;
78989;SDS011;68390;52.130;21.218;2023-07-24T12:04:03;5.72;;;3.55;;
78989;SDS011;68390;52.130;21.218;2023-07-24T12:06:30;4.85;;;3.38;;
78989;SDS011;68390;52.130;21.218;2023-07-24T12:09:03;10.35;;;3.60;;
78989;SDS011;68390;52.130;21.218;2023-07-24T12:11:32;8.38;;;3.53;;
78989;SDS011;68390;52.130;21.218;2023-07-24T12:13:57;4.90;;;3.35;;
78989;SDS011;68390;52.130;21.218;2023-07-24T12:16:23;7.30;;;3.63;;
78989;SDS011;68390;52.130;21.218;2023-07-24T12:18:48;4.95;;;3.78;;
78989;SDS011;68390;52.130;21.218;2023-07-24T12:21:14;5.47;;;3.40;;
78989;SDS011;68390;52.130;21.218;2023-07-24T12:23:39;5.50;;;3.45;;
78989;SDS011;68390;52.130;21.218;2023-07-24T12:26:04;7.20;;;3.85;;
78989;SDS011;68390;52.130;21.218;2023-07-24T12:28:30;5.45;;;3.70;;
78989;SDS011;68390;52.130;21.218;2023-07-24T12:30:55;8.98;;;3.40;;
78989;SDS011;68390;52.130;21.218;2023-07-24T12:33:20;4.97;;;3.25;;
78989;SDS011;68390;52.130;21.218;2023-07-24T12:35:48;5.88;;;3.72;;
78989;SDS011;68390;52.130;21.218;2023-07-24T12:38:14;7.28;;;3.90;;
78989;SDS011;68390;52.130;21.218;2023-07-24T12:40:40;4.28;;;3.22;;
78989;SDS011;68390;52.130;21.218;2023-07-24T12:43:05;8.50;;;3.75;;
78989;SDS011;68390;52.130;21.218;2023-07-24T12:45:31;5.72;;;3.78;;
78989;SDS011;68390;52.130;21.218;2023-07-24T12:47:56;5.78;;;3.38;;
78989;SDS011;68390;52.130;21.218;2023-07-24T12:50:21;5.78;;;3.70;;
78989;SDS011;68390;52.130;21.218;2023-07-24T12:52:48;4.82;;;3.33;;
78989;SDS011;68390;52.130;21.218;2023-07-24T12:55:13;5.97;;;3.38;;
78989;SDS011;68390;52.130;21.218;2023-07-24T12:57:39;6.07;;;3.70;;
78989;SDS011;68390;52.130;21.218;2023-07-24T13:00:05;6.80;;;3.92;;
78989;SDS011;68390;52.130;21.218;2023-07-24T13:02:30;5.45;;;3.70;;
78989;SDS011;68390;52.130;21.218;2023-07-24T13:04:57;5.00;;;3.38;;
78989;SDS011;68390;52.130;21.218;2023-07-24T13:07:22;5.15;;;3.30;;
78989;SDS011;68390;52.130;21.218;2023-07-24T13:09:47;5.93;;;3.75;;
78989;SDS011;68390;52.130;21.218;2023-07-24T13:12:13;5.53;;;3.30;;
78989;SDS011;68390;52.130;21.218;2023-07-24T13:14:38;5.07;;;3.47;;
78989;SDS011;68390;52.130;21.218;2023-07-24T13:17:03;5.68;;;3.80;;
78989;SDS011;68390;52.130;21.218;2023-07-24T13:19:29;8.45;;;3.55;;
78989;SDS011;68390;52.130;21.218;2023-07-24T13:21:54;7.78;;;3.85;;
78989;SDS011;68390;52.130;21.218;2023-07-24T13:24:20;5.80;;;3.53;;
78989;SDS011;68390;52.130;21.218;2023-07-24T13:26:49;6.27;;;3.43;;
78989;SDS011;68390;52.130;21.218;2023-07-24T13:29:15;6.45;;;3.80;;
78989;SDS011;68390;52.130;21.218;2023-07-24T13:31:40;6.97;;;4.03;;
78989;SDS011;68390;52.130;21.218;2023-07-24T13:34:06;5.15;;;3.38;;
78989;SDS011;68390;52.130;21.218;2023-07-24T13:36:32;6.45;;;4.03;;
78989;SDS011;68390;52.130;21.218;2023-07-24T13:38:58;7.05;;;3.60;;
78989;SDS011;68390;52.130;21.218;2023-07-24T13:41:23;9.85;;;4.47;;
78989;SDS011;68390;52.130;21.218;2023-07-24T13:43:49;6.40;;;4.03;;
78989;SDS011;68390;52.130;21.218;2023-07-24T13:46:14;8.32;;;4.03;;
78989;SDS011;68390;52.130;21.218;2023-07-24T13:48:39;6.32;;;3.92;;
78989;SDS011;68390;52.130;21.218;2023-07-24T13:51:05;5.20;;;3.77;;
78989;SDS011;68390;52.130;21.218;2023-07-24T13:53:30;7.10;;;4.00;;
78989;SDS011;68390;52.130;21.218;2023-07-24T13:55:56;4.85;;;3.92;;
78989;SDS011;68390;52.130;21.218;2023-07-24T13:58:21;5.15;;;3.63;;
78989;SDS011;68390;52.130;21.218;2023-07-24T14:00:46;8.65;;;4.05;;
78989;SDS011;68390;52.130;21.218;2023-07-24T14:03:12;6.03;;;3.83;;
78989;SDS011;68390;52.130;21.218;2023-07-24T14:05:37;8.88;;;4.75;;
78989;SDS011;68390;52.130;21.218;2023-07-24T14:08:02;5.45;;;3.45;;
78989;SDS011;68390;52.130;21.218;2023-07-24T14:10:28;6.85;;;3.70;;
78989;SDS011;68390;52.130;21.218;2023-07-24T14:12:54;8.23;;;3.65;;
78989;SDS011;68390;52.130;21.218;2023-07-24T14:15:20;6.47;;;3.58;;
78989;SDS011;68390;52.130;21.218;2023-07-24T14:17:46;9.55;;;4.05;;
78989;SDS011;68390;52.130;21.218;2023-07-24T14:20:11;6.15;;;3.80;;
78989;SDS011;68390;52.130;21.218;2023-07-24T14:22:37;6.43;;;3.88;;
78989;SDS011;68390;52.130;21.218;2023-07-24T14:25:02;4.80;;;3.50;;
78989;SDS011;68390;52.130;21.218;2023-07-24T14:27:28;6.90;;;4.25;;
78989;SDS011;68390;52.130;21.218;2023-07-24T14:29:53;7.60;;;4.40;;
78989;SDS011;68390;52.130;21.218;2023-07-24T14:32:18;6.10;;;3.63;;
78989;SDS011;68390;52.130;21.218;2023-07-24T14:34:44;6.78;;;4.28;;
78989;SDS011;68390;52.130;21.218;2023-07-24T14:37:13;6.05;;;4.15;;
78989;SDS011;68390;52.130;21.218;2023-07-24T14:39:41;9.65;;;4.15;;